Time;durP1;ratioP1;P1;durP2;ratioP2;P2;SDS_P1;SDS_P2;PMS_P1;PMS_P2;Temp;Humidity;BMP_temperature;BMP_pressure;BME280_temperature;BME280_humidity;BME280_pressure;Samples;Min_cycle;Max_cycle;Signal;HPM_P1;HPM_P2
2021/03/29 00:01:00;;;;;;;15.38;8.02;;;;;;;;;;5092052;28;20027;-78
2021/03/29 00:03:26;;;;;;;14.30;8.77;;;;;;;;;;5092125;28;20031;-78
2021/03/29 00:05:52;;;;;;;22.38;10.57;;;;;;;;;;5091707;28;20487;-78
2021/03/29 00:08:22;;;;;;;16.73;10.15;;;;;;;;;;5093827;28;20024;-78
2021/03/29 00:10:50;;;;;;;16.65;8.20;;;;;;;;;;5077796;28;20426;-78
2021/03/29 00:13:16;;;;;;;12.15;6.60;;;;;;;;;;5095663;28;20074;-78
2021/03/29 00:15:44;;;;;;;19.40;9.40;;;;;;;;;;5077710;28;20055;-78
2021/03/29 00:18:11;;;;;;;15.27;9.80;;;;;;;;;;5096009;28;20141;-77
2021/03/29 00:20:38;;;;;;;13.15;8.93;;;;;;;;;;5095415;28;20032;-77
2021/03/29 00:23:05;;;;;;;15.57;9.25;;;;;;;;;;5095849;28;20020;-77
2021/03/29 00:25:32;;;;;;;18.80;10.00;;;;;;;;;;5077735;28;20275;-78
2021/03/29 00:27:59;;;;;;;17.98;9.48;;;;;;;;;;5095364;28;20032;-78
2021/03/29 00:30:26;;;;;;;18.45;9.60;;;;;;;;;;5095576;28;20021;-79
2021/03/29 00:32:53;;;;;;;14.93;8.50;;;;;;;;;;5095418;28;20103;-79
2021/03/29 00:35:21;;;;;;;14.65;9.25;;;;;;;;;;5095239;28;20119;-78
2021/03/29 00:38:06;;;;;;;16.15;9.15;;;;;;;;;;5077389;28;20020;-79
2021/03/29 00:40:33;;;;;;;14.63;7.55;;;;;;;;;;5094925;28;20024;-78
2021/03/29 00:43:00;;;;;;;13.90;7.40;;;;;;;;;;5095270;28;20206;-78
2021/03/29 00:45:27;;;;;;;11.13;7.03;;;;;;;;;;5095291;28;20497;-78
2021/03/29 00:47:54;;;;;;;10.70;6.15;;;;;;;;;;5094917;28;20025;-78
2021/03/29 00:50:36;;;;;;;11.52;6.68;;;;;;;;;;5095128;28;20020;-78
2021/03/29 00:53:02;;;;;;;13.48;7.80;;;;;;;;;;5095103;28;20133;-78
2021/03/29 00:55:29;;;;;;;14.77;8.02;;;;;;;;;;5094948;28;20032;-78
2021/03/29 00:57:56;;;;;;;11.02;7.18;;;;;;;;;;5095314;28;20024;-78
2021/03/29 01:00:27;;;;;;;12.18;7.22;;;;;;;;;;5094926;28;20028;-78
2021/03/29 01:02:53;;;;;;;12.85;7.05;;;;;;;;;;5094549;28;20036;-78
2021/03/29 01:05:21;;;;;;;12.15;6.60;;;;;;;;;;5076710;28;20143;-77
2021/03/29 01:07:49;;;;;;;13.05;7.85;;;;;;;;;;5094920;28;20024;-78
2021/03/29 01:10:16;;;;;;;15.02;7.00;;;;;;;;;;5094522;28;20028;-78
2021/03/29 01:12:43;;;;;;;12.30;7.40;;;;;;;;;;5094821;28;20028;-78
2021/03/29 01:15:10;;;;;;;11.65;6.65;;;;;;;;;;5094654;28;20020;-76
2021/03/29 01:17:38;;;;;;;12.07;6.80;;;;;;;;;;5094445;28;20024;-76
2021/03/29 01:20:04;;;;;;;12.07;7.55;;;;;;;;;;5094703;28;20012;-76
2021/03/29 01:22:40;;;;;;;14.15;7.90;;;;;;;;;;5075823;28;20101;-76
2021/03/29 01:25:09;;;;;;;14.05;8.32;;;;;;;;;;5094527;28;20034;-76
2021/03/29 01:27:37;;;;;;;11.18;6.72;;;;;;;;;;5094510;28;20058;-76
2021/03/29 01:30:06;;;;;;;10.30;5.47;;;;;;;;;;5094072;28;20353;-77
2021/03/29 01:32:33;;;;;;;10.32;5.50;;;;;;;;;;5094339;28;20027;-77
2021/03/29 01:35:00;;;;;;;15.10;6.15;;;;;;;;;;5094240;28;20020;-77
2021/03/29 01:37:27;;;;;;;11.75;6.47;;;;;;;;;;5093941;28;20091;-77
2021/03/29 01:39:53;;;;;;;10.13;5.60;;;;;;;;;;5094248;28;20491;-77
2021/03/29 01:42:21;;;;;;;10.80;5.72;;;;;;;;;;5094020;28;20461;-76
2021/03/29 01:44:48;;;;;;;11.70;6.25;;;;;;;;;;5093655;28;20496;-76
2021/03/29 01:47:15;;;;;;;12.05;6.70;;;;;;;;;;5094302;28;20036;-76
2021/03/29 01:49:41;;;;;;;34.45;16.67;;;;;;;;;;5093928;28;20027;-76
2021/03/29 01:52:08;;;;;;;28.48;15.52;;;;;;;;;;5093523;28;20519;-77
2021/03/29 01:54:35;;;;;;;33.42;16.33;;;;;;;;;;5093892;28;20024;-77
2021/03/29 01:57:11;;;;;;;23.30;11.32;;;;;;;;;;5093980;28;20426;-77
2021/03/29 01:59:37;;;;;;;16.67;8.50;;;;;;;;;;5093533;28;20016;-77
2021/03/29 02:02:05;;;;;;;23.80;12.82;;;;;;;;;;5075512;28;20038;-77
2021/03/29 02:04:31;;;;;;;14.27;9.05;;;;;;;;;;5093691;28;20020;-76
2021/03/29 02:06:59;;;;;;;17.95;9.68;;;;;;;;;;5093221;28;20443;-77
2021/03/29 02:09:25;;;;;;;16.92;9.25;;;;;;;;;;5093627;28;20028;-76
2021/03/29 02:11:52;;;;;;;13.50;8.40;;;;;;;;;;5093133;28;20491;-77
2021/03/29 02:14:19;;;;;;;15.32;8.00;;;;;;;;;;5075344;28;20111;-76
2021/03/29 02:16:47;;;;;;;15.25;7.60;;;;;;;;;;5075461;28;20031;-76
2021/03/29 02:19:13;;;;;;;12.50;7.47;;;;;;;;;;5093139;28;20024;-76
2021/03/29 02:21:41;;;;;;;15.77;8.38;;;;;;;;;;5093142;28;20385;-76
2021/03/29 02:24:07;;;;;;;14.93;7.88;;;;;;;;;;5075062;28;20039;-76
2021/03/29 02:26:38;;;;;;;12.85;8.20;;;;;;;;;;5092840;28;20108;-76
2021/03/29 02:29:04;;;;;;;13.32;7.55;;;;;;;;;;5093195;28;20081;-76
2021/03/29 02:31:31;;;;;;;14.02;7.50;;;;;;;;;;5092712;28;20051;-77
2021/03/29 02:34:01;;;;;;;12.77;7.28;;;;;;;;;;5075404;28;20357;-77
2021/03/29 02:36:27;;;;;;;16.30;8.00;;;;;;;;;;5097603;28;20533;-76
2021/03/29 02:38:54;;;;;;;17.08;8.50;;;;;;;;;;5097584;28;20385;-76
2021/03/29 02:41:24;;;;;;;13.77;7.32;;;;;;;;;;5092624;28;20024;-76
2021/03/29 02:43:51;;;;;;;11.55;7.10;;;;;;;;;;5092976;28;20020;-76
2021/03/29 02:46:18;;;;;;;11.40;6.93;;;;;;;;;;5074778;28;20023;-76
2021/03/29 02:48:46;;;;;;;13.15;7.68;;;;;;;;;;5092573;28;20024;-76
2021/03/29 02:51:13;;;;;;;11.13;6.63;;;;;;;;;;5074685;28;20481;-77
2021/03/29 02:53:44;;;;;;;13.30;7.63;;;;;;;;;;5092788;28;20488;-77
2021/03/29 02:56:15;;;;;;;14.93;7.38;;;;;;;;;;5092506;28;20016;-77
2021/03/29 02:58:42;;;;;;;14.40;8.02;;;;;;;;;;5074852;28;20030;-77
2021/03/29 03:01:09;;;;;;;12.77;7.30;;;;;;;;;;5092228;28;20036;-77
2021/03/29 03:03:36;;;;;;;16.23;9.00;;;;;;;;;;5092699;28;20047;-76
2021/03/29 03:06:03;;;;;;;28.95;12.55;;;;;;;;;;5092714;28;20024;-76
2021/03/29 03:08:29;;;;;;;28.08;13.85;;;;;;;;;;5092308;28;20016;-77
2021/03/29 03:10:56;;;;;;;25.55;12.27;;;;;;;;;;5092658;28;20031;-77
2021/03/29 03:13:22;;;;;;;32.92;14.93;;;;;;;;;;5092525;28;20024;-77
2021/03/29 03:15:48;;;;;;;25.80;12.07;;;;;;;;;;5092242;28;20058;-77
2021/03/29 03:18:14;;;;;;;16.38;8.43;;;;;;;;;;5092628;28;20024;-77
2021/03/29 03:20:40;;;;;;;11.65;7.50;;;;;;;;;;5092377;28;20041;-76
2021/03/29 03:23:09;;;;;;;11.20;7.38;;;;;;;;;;5092194;28;20023;-77
2021/03/29 03:25:38;;;;;;;12.50;7.13;;;;;;;;;;5074418;28;20387;-77
2021/03/29 03:28:05;;;;;;;10.52;6.78;;;;;;;;;;5092491;28;20472;-77
2021/03/29 03:30:33;;;;;;;10.68;6.80;;;;;;;;;;5092128;28;20553;-77
2021/03/29 03:33:00;;;;;;;12.10;7.15;;;;;;;;;;5092408;28;20020;-78
2021/03/29 03:35:27;;;;;;;9.02;5.85;;;;;;;;;;5092438;28;20051;-78
2021/03/29 03:38:00;;;;;;;10.52;5.97;;;;;;;;;;5092252;28;20020;-78
2021/03/29 03:40:27;;;;;;;12.02;6.85;;;;;;;;;;5092422;28;20105;-78
2021/03/29 03:42:56;;;;;;;12.38;7.60;;;;;;;;;;5075148;28;20040;-77
2021/03/29 03:45:25;;;;;;;13.63;7.30;;;;;;;;;;5095951;28;20039;-77
2021/03/29 03:47:52;;;;;;;11.88;6.75;;;;;;;;;;5096259;28;20484;-77
2021/03/29 03:50:18;;;;;;;10.20;6.18;;;;;;;;;;5095707;28;20027;-78
2021/03/29 03:52:45;;;;;;;12.98;7.47;;;;;;;;;;5096125;28;20020;-78
2021/03/29 03:55:11;;;;;;;11.52;6.78;;;;;;;;;;5096177;28;20031;-78
2021/03/29 03:57:38;;;;;;;15.93;8.38;;;;;;;;;;5095862;28;20028;-78
2021/03/29 04:00:10;;;;;;;11.70;6.35;;;;;;;;;;5096114;28;20020;-78
2021/03/29 04:02:36;;;;;;;15.50;6.82;;;;;;;;;;5095875;28;20073;-77
2021/03/29 04:05:06;;;;;;;15.77;7.57;;;;;;;;;;5095748;28;20032;-78
2021/03/29 04:07:32;;;;;;;14.93;7.47;;;;;;;;;;5096110;28;20128;-78
2021/03/29 04:10:06;;;;;;;11.15;6.57;;;;;;;;;;5095851;28;20051;-76
2021/03/29 04:12:33;;;;;;;9.85;5.97;;;;;;;;;;5095458;28;20016;-76
2021/03/29 04:14:59;;;;;;;11.77;7.50;;;;;;;;;;5095797;28;20093;-76
2021/03/29 04:17:25;;;;;;;12.68;7.20;;;;;;;;;;5076986;28;20472;-77
2021/03/29 04:19:51;;;;;;;11.13;6.38;;;;;;;;;;5094050;28;20362;-78
2021/03/29 04:22:17;;;;;;;11.15;7.32;;;;;;;;;;5093910;28;20040;-78
2021/03/29 04:24:44;;;;;;;13.07;7.15;;;;;;;;;;5095957;28;20388;-77
2021/03/29 04:27:10;;;;;;;14.25;7.72;;;;;;;;;;5095557;28;20111;-78
2021/03/29 04:29:36;;;;;;;15.00;6.47;;;;;;;;;;5095563;28;20476;-76
2021/03/29 04:32:02;;;;;;;16.23;10.15;;;;;;;;;;5095389;28;20035;-77
2021/03/29 04:34:28;;;;;;;18.92;10.82;;;;;;;;;;5095098;28;20084;-76
2021/03/29 04:36:56;;;;;;;24.02;15.63;;;;;;;;;;5095807;28;20028;-77
2021/03/29 04:39:22;;;;;;;19.98;12.68;;;;;;;;;;5093701;28;20020;-77
2021/03/29 04:41:48;;;;;;;21.05;11.80;;;;;;;;;;5093032;28;20063;-76
2021/03/29 04:44:14;;;;;;;14.35;10.10;;;;;;;;;;5093346;28;20164;-77
2021/03/29 04:46:40;;;;;;;15.70;8.32;;;;;;;;;;5092910;28;20024;-77
2021/03/29 04:49:06;;;;;;;16.35;8.98;;;;;;;;;;5093073;28;20020;-77
2021/03/29 04:51:33;;;;;;;12.75;8.52;;;;;;;;;;5093588;28;20016;-77
2021/03/29 04:53:59;;;;;;;13.48;6.95;;;;;;;;;;5093613;28;20020;-77
2021/03/29 04:56:25;;;;;;;14.48;8.18;;;;;;;;;;5095227;28;20020;-77
2021/03/29 04:58:51;;;;;;;13.45;8.38;;;;;;;;;;5076821;28;20020;-78
2021/03/29 05:01:17;;;;;;;22.05;12.70;;;;;;;;;;5094390;28;20026;-77
2021/03/29 05:03:44;;;;;;;19.67;10.20;;;;;;;;;;5094891;28;20024;-78
2021/03/29 05:06:10;;;;;;;17.23;10.38;;;;;;;;;;5094940;28;20066;-77
2021/03/29 05:08:36;;;;;;;21.58;10.82;;;;;;;;;;5094432;28;20514;-77
2021/03/29 05:11:02;;;;;;;18.05;11.55;;;;;;;;;;5094800;28;20028;-77
2021/03/29 05:13:28;;;;;;;18.60;10.32;;;;;;;;;;5094618;28;20080;-78
2021/03/29 05:15:55;;;;;;;17.90;8.25;;;;;;;;;;5094616;28;20028;-77
2021/03/29 05:18:21;;;;;;;13.38;6.68;;;;;;;;;;5094801;28;20023;-78
2021/03/29 05:20:47;;;;;;;13.15;7.57;;;;;;;;;;5094411;28;20183;-77
2021/03/29 05:23:13;;;;;;;13.30;7.15;;;;;;;;;;5094181;28;20099;-78
2021/03/29 05:25:39;;;;;;;14.38;8.15;;;;;;;;;;5076371;28;20027;-78
2021/03/29 05:28:06;;;;;;;13.57;8.75;;;;;;;;;;5076480;28;20024;-77
2021/03/29 05:30:32;;;;;;;13.18;7.90;;;;;;;;;;5093989;28;20236;-77
2021/03/29 05:32:58;;;;;;;13.82;8.02;;;;;;;;;;5076428;28;20476;-79
2021/03/29 05:35:24;;;;;;;13.70;8.02;;;;;;;;;;5076365;28;20098;-78
2021/03/29 05:37:50;;;;;;;13.73;8.25;;;;;;;;;;5094316;28;20105;-79
2021/03/29 05:40:17;;;;;;;13.35;7.28;;;;;;;;;;5095142;28;20436;-79
2021/03/29 05:42:44;;;;;;;15.13;8.88;;;;;;;;;;5093784;28;20356;-74
2021/03/29 05:45:11;;;;;;;17.35;11.02;;;;;;;;;;5093403;28;20030;-77
2021/03/29 05:47:38;;;;;;;15.40;9.50;;;;;;;;;;5096860;28;20020;-78
2021/03/29 05:50:06;;;;;;;16.52;9.10;;;;;;;;;;5094122;28;20850;-74
2021/03/29 05:52:32;;;;;;;16.70;8.60;;;;;;;;;;5094068;28;20024;-76
2021/03/29 05:54:59;;;;;;;16.50;7.57;;;;;;;;;;5093870;28;20376;-76
2021/03/29 05:57:26;;;;;;;15.95;9.05;;;;;;;;;;5093798;28;20024;-75
2021/03/29 05:59:52;;;;;;;21.75;11.65;;;;;;;;;;5075967;28;20024;-77
2021/03/29 06:02:29;;;;;;;23.27;12.18;;;;;;;;;;5093595;28;20047;-77
2021/03/29 06:04:55;;;;;;;18.20;10.38;;;;;;;;;;5092994;28;20109;-77
2021/03/29 06:07:26;;;;;;;25.17;11.32;;;;;;;;;;5074540;28;20016;-74
2021/03/29 06:09:53;;;;;;;25.45;12.02;;;;;;;;;;5091922;28;20032;-76
2021/03/29 06:12:20;;;;;;;20.23;10.95;;;;;;;;;;5092416;28;20480;-76
2021/03/29 06:14:47;;;;;;;41.20;20.05;;;;;;;;;;5093145;28;20027;-75
2021/03/29 06:17:21;;;;;;;42.60;20.88;;;;;;;;;;5094011;28;20020;-78
2021/03/29 06:19:58;;;;;;;25.98;13.20;;;;;;;;;;5093761;28;20024;-77
2021/03/29 06:22:25;;;;;;;15.15;9.15;;;;;;;;;;5074922;28;20125;-77
2021/03/29 06:24:54;;;;;;;15.70;8.15;;;;;;;;;;5082287;28;20023;-75
2021/03/29 06:27:22;;;;;;;15.10;7.82;;;;;;;;;;5071276;28;20036;-72
2021/03/29 06:29:48;;;;;;;17.35;10.80;;;;;;;;;;5053359;28;20381;-73
2021/03/29 06:32:21;;;;;;;17.10;9.80;;;;;;;;;;5070800;28;20032;-72
2021/03/29 06:34:47;;;;;;;18.27;9.48;;;;;;;;;;5071054;28;20216;-74
2021/03/29 06:37:13;;;;;;;18.48;11.27;;;;;;;;;;5079565;28;20024;-75
2021/03/29 06:39:43;;;;;;;28.52;14.15;;;;;;;;;;5092894;28;20051;-74
2021/03/29 06:42:09;;;;;;;28.45;14.57;;;;;;;;;;5092874;28;20462;-74
2021/03/29 06:44:37;;;;;;;24.42;13.73;;;;;;;;;;5093014;28;20020;-73
2021/03/29 06:47:06;;;;;;;25.88;12.43;;;;;;;;;;5092556;28;20031;-75
2021/03/29 06:49:39;;;;;;;23.40;13.00;;;;;;;;;;5074800;28;20476;-77
2021/03/29 06:52:24;;;;;;;21.83;11.00;;;;;;;;;;5092814;28;20068;-77
2021/03/29 06:54:51;;;;;;;16.40;9.18;;;;;;;;;;5092583;28;20020;-73
2021/03/29 06:57:27;;;;;;;17.15;9.18;;;;;;;;;;5092504;28;20027;-74
2021/03/29 06:59:54;;;;;;;16.48;8.00;;;;;;;;;;5092575;28;20652;-74
2021/03/29 07:02:36;;;;;;;11.45;6.63;;;;;;;;;;5091879;28;20032;-75
2021/03/29 07:05:02;;;;;;;13.02;6.85;;;;;;;;;;5092674;28;20486;-78
2021/03/29 07:07:29;;;;;;;13.85;8.60;;;;;;;;;;5092342;28;20074;-78
2021/03/29 07:09:57;;;;;;;13.15;6.40;;;;;;;;;;5085444;28;20436;-76
2021/03/29 07:12:24;;;;;;;14.55;6.28;;;;;;;;;;5088882;28;20027;-78
2021/03/29 07:14:51;;;;;;;10.95;5.97;;;;;;;;;;5092171;28;20042;-75
2021/03/29 07:17:19;;;;;;;10.70;5.97;;;;;;;;;;5092480;28;20134;-80
2021/03/29 07:20:04;;;;;;;11.23;5.07;;;;;;;;;;5110144;27;20381;-81
2021/03/29 07:22:31;;;;;;;10.00;5.90;;;;;;;;;;5108177;28;20028;-78
2021/03/29 07:26:43;;;;;;;15.48;8.43;;;;;;;;;;5110310;27;20380;-80
2021/03/29 07:29:21;;;;;;;11.50;6.28;;;;;;;;;;5109963;28;20477;-78
2021/03/29 07:31:50;;;;;;;9.48;5.50;;;;;;;;;;5108903;28;20034;-76
2021/03/29 07:34:51;;;;;;;12.93;5.90;;;;;;;;;;5069863;28;20376;-74
2021/03/29 07:37:32;;;;;;;10.02;6.05;;;;;;;;;;5069465;28;20028;-80
2021/03/29 07:41:17;;;;;;;13.40;6.90;;;;;;;;;;5110430;27;20441;-79
2021/03/29 07:44:10;;;;;;;13.45;6.32;;;;;;;;;;5110100;27;20438;-78
2021/03/29 07:46:40;;;;;;;13.00;6.57;;;;;;;;;;5109996;28;20103;-78
2021/03/29 07:49:25;;;;;;;12.27;6.75;;;;;;;;;;5109864;28;20504;-79
2021/03/29 07:53:16;;;;;;;13.02;5.95;;;;;;;;;;5069883;28;21107;-78
2021/03/29 07:55:53;;;;;;;18.48;7.75;;;;;;;;;;5069721;28;20025;-78
2021/03/29 08:00:05;;;;;;;13.30;5.93;;;;;;;;;;5068645;28;20798;-78
2021/03/29 08:02:32;;;;;;;8.30;4.50;;;;;;;;;;5069522;28;20072;-79
2021/03/29 08:05:05;;;;;;;13.43;5.75;;;;;;;;;;5069328;28;20031;-79
2021/03/29 08:07:38;;;;;;;9.80;4.78;;;;;;;;;;5069577;28;20553;-78
2021/03/29 08:10:05;;;;;;;10.15;5.00;;;;;;;;;;5069452;28;20481;-77
2021/03/29 08:13:59;;;;;;;9.77;5.53;;;;;;;;;;5069934;28;20438;-80
2021/03/29 08:16:52;;;;;;;11.57;6.03;;;;;;;;;;5069796;28;20392;-79
2021/03/29 08:19:25;;;;;;;10.65;5.35;;;;;;;;;;5069276;28;20534;-79
2021/03/29 08:21:52;;;;;;;;;;;;;;;;;;5070017;28;20056;-79
2021/03/29 08:25:08;;;;;;;9.52;4.47;;;;;;;;;;5062266;28;20388;-78
2021/03/29 08:27:34;;;;;;;9.00;5.30;;;;;;;;;;5068466;28;20025;-79
2021/03/29 08:30:12;;;;;;;10.32;4.90;;;;;;;;;;5069739;28;20021;-77
2021/03/29 08:36:06;;;;;;;11.82;5.13;;;;;;;;;;5110372;27;20949;-79
2021/03/29 08:38:33;;;;;;;9.20;4.53;;;;;;;;;;5109662;28;20032;-79
2021/03/29 08:40:59;;;;;;;17.15;9.10;;;;;;;;;;5110101;28;20027;-79
2021/03/29 08:43:26;;;;;;;19.65;9.30;;;;;;;;;;5103089;28;20024;-79
2021/03/29 08:45:52;;;;;;;13.07;6.95;;;;;;;;;;5102532;28;20012;-79
2021/03/29 08:49:29;;;;;;;7.85;3.63;;;;;;;;;;5069605;28;20433;-79
2021/03/29 08:51:55;;;;;;;9.15;4.95;;;;;;;;;;5069899;28;20032;-74
2021/03/29 08:54:22;;;;;;;13.07;6.32;;;;;;;;;;5069148;28;20385;-75
2021/03/29 08:56:50;;;;;;;10.60;4.10;;;;;;;;;;5068272;28;20031;-74
2021/03/29 08:59:16;;;;;;;13.98;6.60;;;;;;;;;;5069480;28;20037;-75
2021/03/29 09:01:43;;;;;;;14.63;4.80;;;;;;;;;;5068710;28;20016;-75
2021/03/29 09:04:10;;;;;;;17.38;6.07;;;;;;;;;;5069204;28;20558;-76
2021/03/29 09:06:36;;;;;;;13.48;6.03;;;;;;;;;;5069316;28;20021;-76
2021/03/29 09:09:12;;;;;;;11.10;5.30;;;;;;;;;;5069032;28;20108;-74
2021/03/29 09:11:42;;;;;;;16.55;6.65;;;;;;;;;;5069574;28;20055;-72
2021/03/29 09:14:47;;;;;;;11.93;6.45;;;;;;;;;;5109945;27;20377;-72
2021/03/29 09:19:25;;;;;;;8.55;4.45;;;;;;;;;;5089651;27;20382;-72
2021/03/29 09:21:55;;;;;;;7.90;3.97;;;;;;;;;;5088796;28;20051;-73
2021/03/29 09:24:23;;;;;;;9.70;4.47;;;;;;;;;;5089681;28;20430;-73
2021/03/29 09:26:57;;;;;;;8.75;3.75;;;;;;;;;;5089836;28;20476;-73
2021/03/29 09:30:51;;;;;;;8.98;4.30;;;;;;;;;;5108595;27;20316;-74
2021/03/29 09:33:18;;;;;;;10.30;5.00;;;;;;;;;;5108248;28;20031;-73
2021/03/29 09:35:45;;;;;;;14.80;5.05;;;;;;;;;;5107679;28;20480;-73
2021/03/29 09:38:12;;;;;;;9.98;4.88;;;;;;;;;;5108097;28;20464;-73
2021/03/29 09:40:38;;;;;;;13.95;7.45;;;;;;;;;;5108327;28;20102;-73
2021/03/29 09:43:05;;;;;;;12.52;6.07;;;;;;;;;;5101440;28;20413;-73
2021/03/29 09:47:30;;;;;;;13.70;8.45;;;;;;;;;;5069830;27;20441;-72
2021/03/29 09:49:59;;;;;;;12.48;5.80;;;;;;;;;;5069434;28;20036;-73
2021/03/29 09:52:36;;;;;;;12.95;6.28;;;;;;;;;;5069588;28;20126;-72
2021/03/29 09:56:53;;;;;;;12.48;5.18;;;;;;;;;;5069178;28;20384;-74
2021/03/29 09:59:26;;;;;;;6.93;3.53;;;;;;;;;;5069760;28;20039;-74
2021/03/29 10:01:52;;;;;;;8.88;4.82;;;;;;;;;;5069626;28;20052;-73
2021/03/29 10:04:19;;;;;;;7.00;4.03;;;;;;;;;;5069095;28;20028;-74
2021/03/29 10:06:53;;;;;;;7.60;2.83;;;;;;;;;;5069517;28;20067;-73
2021/03/29 10:09:48;;;;;;;10.82;4.68;;;;;;;;;;5069667;28;20158;-74
2021/03/29 10:12:25;;;;;;;8.82;3.70;;;;;;;;;;5064209;28;20037;-73
2021/03/29 10:15:32;;;;;;;8.85;4.32;;;;;;;;;;5089805;27;20382;-72
2021/03/29 10:18:07;;;;;;;9.63;4.63;;;;;;;;;;5083426;28;20025;-72
2021/03/29 10:20:37;;;;;;;9.85;3.83;;;;;;;;;;5075706;28;20071;-72
2021/03/29 10:23:21;;;;;;;8.32;4.25;;;;;;;;;;5071945;28;20078;-73
2021/03/29 10:26:06;;;;;;;6.95;4.07;;;;;;;;;;5069228;28;20025;-72
2021/03/29 10:28:33;;;;;;;8.60;4.63;;;;;;;;;;5069526;28;20032;-74
2021/03/29 10:30:59;;;;;;;8.90;4.20;;;;;;;;;;5069423;28;20036;-73
2021/03/29 10:33:25;;;;;;;8.32;4.20;;;;;;;;;;5085304;28;20115;-73
2021/03/29 10:35:51;;;;;;;8.15;3.80;;;;;;;;;;5109248;28;20487;-72
2021/03/29 10:38:17;;;;;;;10.45;3.97;;;;;;;;;;5109081;28;20489;-72
2021/03/29 10:40:44;;;;;;;9.77;3.60;;;;;;;;;;5109419;28;20095;-72
2021/03/29 10:43:10;;;;;;;7.63;3.25;;;;;;;;;;5109299;28;20411;-72
2021/03/29 10:45:36;;;;;;;11.20;4.85;;;;;;;;;;5109006;28;20032;-72
2021/03/29 10:48:03;;;;;;;8.23;3.40;;;;;;;;;;5096958;28;20044;-72
2021/03/29 10:50:29;;;;;;;14.05;6.55;;;;;;;;;;5088696;28;20142;-72
2021/03/29 10:52:55;;;;;;;15.00;4.60;;;;;;;;;;5088305;28;20016;-72
2021/03/29 10:55:22;;;;;;;10.43;4.30;;;;;;;;;;5088570;28;20435;-72
2021/03/29 10:57:49;;;;;;;9.95;4.10;;;;;;;;;;5088706;28;20255;-72
2021/03/29 11:00:15;;;;;;;9.48;4.20;;;;;;;;;;5088019;28;20070;-72
2021/03/29 11:02:41;;;;;;;10.57;4.88;;;;;;;;;;5088611;28;20089;-72
2021/03/29 11:05:08;;;;;;;10.65;5.15;;;;;;;;;;5081422;28;20024;-72
2021/03/29 11:07:34;;;;;;;7.25;4.00;;;;;;;;;;5086983;28;20020;-72
2021/03/29 11:10:00;;;;;;;9.93;4.43;;;;;;;;;;5098135;28;20020;-72
2021/03/29 11:12:27;;;;;;;9.07;4.53;;;;;;;;;;5108551;28;20019;-72
2021/03/29 11:14:53;;;;;;;7.63;3.85;;;;;;;;;;5107365;28;20054;-72
2021/03/29 11:17:22;;;;;;;7.50;3.50;;;;;;;;;;5108539;28;20055;-71
2021/03/29 11:19:48;;;;;;;9.68;4.30;;;;;;;;;;5108515;28;20026;-72
2021/03/29 11:22:14;;;;;;;6.65;3.78;;;;;;;;;;5108096;28;20427;-72
2021/03/29 11:24:41;;;;;;;7.95;3.72;;;;;;;;;;5106792;28;20127;-72
2021/03/29 11:27:07;;;;;;;8.57;3.67;;;;;;;;;;5094580;28;20035;-72
2021/03/29 11:29:33;;;;;;;5.72;3.08;;;;;;;;;;5093172;28;20028;-73
2021/03/29 11:31:59;;;;;;;8.70;3.50;;;;;;;;;;5094811;28;20172;-72
2021/03/29 11:34:26;;;;;;;13.65;4.28;;;;;;;;;;5094186;28;20035;-72
2021/03/29 11:36:52;;;;;;;10.40;4.85;;;;;;;;;;5094483;28;20020;-72
2021/03/29 11:39:18;;;;;;;9.35;3.92;;;;;;;;;;5094461;28;20070;-72
2021/03/29 11:41:45;;;;;;;8.25;4.13;;;;;;;;;;5092891;28;20048;-72
2021/03/29 11:44:11;;;;;;;9.27;4.22;;;;;;;;;;5094417;28;20045;-73
2021/03/29 11:46:37;;;;;;;6.22;3.35;;;;;;;;;;5094493;28;20095;-72
2021/03/29 11:49:03;;;;;;;8.05;3.83;;;;;;;;;;5093008;28;20019;-72
2021/03/29 11:51:29;;;;;;;6.05;2.85;;;;;;;;;;5076889;28;20272;-72
2021/03/29 11:53:56;;;;;;;9.18;3.53;;;;;;;;;;5074122;28;20069;-72
2021/03/29 11:56:22;;;;;;;10.13;3.60;;;;;;;;;;5071859;28;20028;-72
2021/03/29 12:00:58;;;;;;;7.93;3.72;;;;;;;;;;5129941;27;20445;-71
2021/03/29 12:03:40;;;;;;;6.43;3.25;;;;;;;;;;5109234;28;20038;-71
2021/03/29 12:06:24;;;;;;;6.75;3.40;;;;;;;;;;5109665;28;20045;-72
2021/03/29 12:08:59;;;;;;;7.88;3.67;;;;;;;;;;5110042;28;20074;-72
2021/03/29 12:14:10;;;;;;;11.10;3.63;;;;;;;;;;5109555;28;20035;-71
2021/03/29 12:16:41;;;;;;;7.60;3.42;;;;;;;;;;5109004;28;20076;-71
2021/03/29 12:19:08;;;;;;;10.25;4.13;;;;;;;;;;5109305;28;20051;-72
2021/03/29 12:21:37;;;;;;;8.88;3.95;;;;;;;;;;5109267;28;20024;-73
2021/03/29 12:24:15;;;;;;;8.73;3.10;;;;;;;;;;5108891;28;20062;-73
2021/03/29 12:26:42;;;;;;;7.80;2.88;;;;;;;;;;5109437;28;20057;-73
2021/03/29 12:29:09;;;;;;;7.00;2.97;;;;;;;;;;5109253;28;20016;-74
2021/03/29 12:31:42;;;;;;;7.13;3.13;;;;;;;;;;5108907;28;20101;-73
2021/03/29 12:34:08;;;;;;;9.57;3.88;;;;;;;;;;5108799;28;20011;-74
2021/03/29 12:36:42;;;;;;;8.23;3.92;;;;;;;;;;5108177;28;20100;-73
2021/03/29 12:41:42;;;;;;;6.95;2.58;;;;;;;;;;5109848;28;20464;-74
2021/03/29 12:44:14;;;;;;;5.93;2.88;;;;;;;;;;5109543;28;20039;-74
2021/03/29 12:46:41;;;;;;;7.10;3.90;;;;;;;;;;5109334;28;20032;-74
2021/03/29 12:49:14;;;;;;;7.15;3.22;;;;;;;;;;5109611;28;20024;-74
2021/03/29 12:51:40;;;;;;;8.15;2.97;;;;;;;;;;5109368;28;20589;-72
2021/03/29 12:54:08;;;;;;;8.85;3.80;;;;;;;;;;5108855;28;20096;-74
2021/03/29 12:56:34;;;;;;;8.63;3.95;;;;;;;;;;5090871;28;20159;-73
2021/03/29 12:59:03;;;;;;;7.78;2.92;;;;;;;;;;5092935;28;20047;-72
2021/03/29 13:01:29;;;;;;;6.10;2.22;;;;;;;;;;5109084;28;20026;-73
2021/03/29 13:03:57;;;;;;;7.03;3.50;;;;;;;;;;5109070;28;20016;-73
2021/03/29 13:06:43;;;;;;;8.23;3.03;;;;;;;;;;5108660;28;20027;-73
2021/03/29 13:09:21;;;;;;;6.47;3.00;;;;;;;;;;5109157;28;20020;-73
2021/03/29 13:11:49;;;;;;;8.75;3.45;;;;;;;;;;5096954;28;20376;-72
2021/03/29 13:14:15;;;;;;;5.35;2.33;;;;;;;;;;5095128;28;20020;-73
2021/03/29 13:16:41;;;;;;;6.13;2.85;;;;;;;;;;5095305;28;20553;-73
2021/03/29 13:19:07;;;;;;;8.40;3.65;;;;;;;;;;5095101;28;20024;-73
2021/03/29 13:21:34;;;;;;;6.95;3.40;;;;;;;;;;5093545;28;20058;-73
2021/03/29 13:24:01;;;;;;;5.90;2.67;;;;;;;;;;5095130;28;20476;-73
2021/03/29 13:26:28;;;;;;;6.75;3.55;;;;;;;;;;5095039;28;20385;-74
2021/03/29 13:28:54;;;;;;;5.32;2.50;;;;;;;;;;5093705;28;20426;-74
2021/03/29 13:31:24;;;;;;;10.77;5.25;;;;;;;;;;5095021;28;20491;-74
2021/03/29 13:33:50;;;;;;;10.55;4.47;;;;;;;;;;5094811;28;20046;-74
2021/03/29 13:36:17;;;;;;;8.80;4.13;;;;;;;;;;5094458;28;20078;-74
2021/03/29 13:38:43;;;;;;;10.85;4.65;;;;;;;;;;5094739;28;20469;-74
2021/03/29 13:41:10;;;;;;;5.10;2.60;;;;;;;;;;5094397;28;20518;-74
2021/03/29 13:43:40;;;;;;;8.75;3.50;;;;;;;;;;5094735;28;20020;-74
2021/03/29 13:46:07;;;;;;;7.80;3.47;;;;;;;;;;5094791;28;20031;-73
2021/03/29 13:48:33;;;;;;;10.10;3.95;;;;;;;;;;5094423;28;20024;-74
2021/03/29 13:51:00;;;;;;;6.85;2.90;;;;;;;;;;5094628;28;20429;-73
2021/03/29 13:53:29;;;;;;;6.57;3.13;;;;;;;;;;5094600;28;20057;-73
2021/03/29 13:55:55;;;;;;;8.85;4.93;;;;;;;;;;5092834;28;20381;-73
2021/03/29 13:58:21;;;;;;;7.57;3.85;;;;;;;;;;5092339;28;20168;-73
2021/03/29 14:00:48;;;;;;;6.93;2.65;;;;;;;;;;5074150;28;20039;-73
2021/03/29 14:03:17;;;;;;;7.05;2.92;;;;;;;;;;5073344;28;20028;-73
2021/03/29 14:05:43;;;;;;;10.68;3.38;;;;;;;;;;5074126;28;20416;-72
2021/03/29 14:08:10;;;;;;;7.90;3.70;;;;;;;;;;5074308;28;20028;-72
2021/03/29 14:10:38;;;;;;;8.02;3.65;;;;;;;;;;5073761;28;20027;-73
2021/03/29 14:13:07;;;;;;;9.70;4.13;;;;;;;;;;5055920;28;20020;-73
2021/03/29 14:15:34;;;;;;;10.73;5.30;;;;;;;;;;5073837;28;20023;-73
2021/03/29 14:18:02;;;;;;;7.35;3.80;;;;;;;;;;5073462;28;20025;-72
2021/03/29 14:20:28;;;;;;;9.00;3.55;;;;;;;;;;5055958;28;20061;-72
2021/03/29 14:22:54;;;;;;;9.88;4.40;;;;;;;;;;5054770;28;20089;-72
2021/03/29 14:25:21;;;;;;;9.18;4.13;;;;;;;;;;5073252;28;20039;-72
2021/03/29 14:27:48;;;;;;;5.38;2.70;;;;;;;;;;5073776;28;20049;-72
2021/03/29 14:30:15;;;;;;;8.35;4.25;;;;;;;;;;5073313;28;20041;-74
2021/03/29 14:32:41;;;;;;;11.15;3.90;;;;;;;;;;5055614;28;20381;-72
2021/03/29 14:38:06;;;;;;;8.68;4.10;;;;;;;;;;5072982;28;20029;-73
2021/03/29 14:43:16;;;;;;;8.40;4.30;;;;;;;;;;5073342;28;20020;-72
2021/03/29 14:45:43;;;;;;;8.25;3.78;;;;;;;;;;5073142;28;20112;-72
2021/03/29 14:48:09;;;;;;;7.53;3.13;;;;;;;;;;5073261;28;20405;-73
2021/03/29 14:50:35;;;;;;;7.43;2.63;;;;;;;;;;5073242;28;20019;-72
2021/03/29 14:53:01;;;;;;;6.82;3.58;;;;;;;;;;5072680;28;20028;-73
2021/03/29 14:55:29;;;;;;;7.47;3.92;;;;;;;;;;5073086;28;20533;-73
2021/03/29 14:57:55;;;;;;;8.40;3.55;;;;;;;;;;5072984;28;20035;-72
2021/03/29 15:00:21;;;;;;;13.60;4.78;;;;;;;;;;5072394;28;20516;-73
2021/03/29 15:02:58;;;;;;;7.90;3.80;;;;;;;;;;5072983;28;20381;-73
2021/03/29 15:05:31;;;;;;;8.23;4.03;;;;;;;;;;5072737;28;20053;-72
2021/03/29 15:07:57;;;;;;;12.63;5.57;;;;;;;;;;5072958;28;20025;-73
2021/03/29 15:10:24;;;;;;;9.32;4.25;;;;;;;;;;5072711;28;20159;-73
2021/03/29 15:12:50;;;;;;;10.32;4.88;;;;;;;;;;5072387;28;20074;-72
2021/03/29 15:15:16;;;;;;;12.93;7.63;;;;;;;;;;5072738;28;20021;-72